Time;durP1;ratioP1;P1;durP2;ratioP2;P2;SDS_P1;SDS_P2;PMS_P1;PMS_P2;Temp;Humidity;BMP_temperature;BMP_pressure;BME280_temperature;BME280_humidity;BME280_pressure;Samples;Min_cycle;Max_cycle;Signal;HPM_P1;HPM_P2
2021/10/11 00:01:11;;;;;;;6.70;5.07;;;16.10;71.40;;;;;;10445433;28;20660;-53
2021/10/11 00:06:33;;;;;;;6.60;5.10;;;16.10;71.40;;;;;;10454122;28;20221;-55
2021/10/11 00:11:55;;;;;;;7.37;5.23;;;16.10;71.40;;;;;;10455055;28;20204;-54
2021/10/11 00:17:19;;;;;;;7.40;5.63;;;16.10;71.40;;;;;;10431665;28;20213;-53
2021/10/11 00:22:42;;;;;;;8.20;5.17;;;16.10;71.40;;;;;;10419081;28;20202;-55
2021/10/11 00:28:04;;;;;;;6.20;4.80;;;16.10;71.40;;;;;;10394429;28;20225;-54
2021/10/11 00:33:27;;;;;;;6.43;4.87;;;16.10;71.50;;;;;;10413896;28;20229;-57
2021/10/11 00:38:50;;;;;;;6.60;5.20;;;16.10;71.40;;;;;;10413836;28;20190;-55
2021/10/11 00:44:12;;;;;;;6.23;5.07;;;16.10;71.50;;;;;;10414703;28;20220;-55
2021/10/11 00:49:35;;;;;;;6.40;4.50;;;16.10;71.50;;;;;;10415452;28;20213;-54
2021/10/11 00:54:58;;;;;;;5.60;4.63;;;16.10;71.50;;;;;;10385911;28;20233;-56
2021/10/11 01:00:20;;;;;;;8.20;5.27;;;16.10;71.60;;;;;;10372468;28;20209;-57
2021/10/11 01:05:43;;;;;;;6.87;5.37;;;16.10;71.60;;;;;;10403216;28;20218;-55
2021/10/11 01:11:05;;;;;;;5.57;4.47;;;16.00;71.50;;;;;;10447262;28;20229;-55
2021/10/11 01:16:27;;;;;;;7.27;4.80;;;16.00;71.60;;;;;;10410967;28;20214;-54
2021/10/11 01:21:51;;;;;;;5.70;4.80;;;16.10;71.60;;;;;;10411704;28;20189;-54
2021/10/11 01:27:15;;;;;;;6.27;5.00;;;16.10;71.70;;;;;;10410643;28;20220;-55
2021/10/11 01:32:37;;;;;;;6.40;4.90;;;16.00;71.70;;;;;;10412212;28;20229;-55
2021/10/11 01:38:00;;;;;;;7.93;4.83;;;16.00;71.80;;;;;;10427024;28;20193;-53
2021/10/11 01:43:22;;;;;;;7.67;5.47;;;16.10;71.80;;;;;;10453065;28;20220;-56
2021/10/11 01:48:45;;;;;;;6.43;5.03;;;16.00;71.80;;;;;;10427666;28;20217;-53
2021/10/11 01:54:09;;;;;;;6.43;4.70;;;16.00;71.80;;;;;;10409567;28;20233;-53
2021/10/11 01:59:31;;;;;;;6.40;5.00;;;16.00;71.90;;;;;;10409557;28;20197;-53
2021/10/11 02:04:53;;;;;;;7.60;4.97;;;16.10;72.00;;;;;;10410506;28;20217;-56
2021/10/11 02:10:16;;;;;;;5.07;4.50;;;16.00;72.00;;;;;;10440279;28;20216;-55
2021/10/11 02:15:38;;;;;;;6.03;5.07;;;16.00;72.00;;;;;;10446134;28;20229;-57
2021/10/11 02:21:00;;;;;;;6.37;4.73;;;16.00;72.10;;;;;;10409938;28;20673;-54
2021/10/11 02:26:24;;;;;;;6.23;4.90;;;16.00;72.10;;;;;;10410006;28;20218;-55
2021/10/11 02:31:46;;;;;;;5.23;4.33;;;16.10;72.30;;;;;;10409050;28;20211;-57
2021/10/11 02:37:08;;;;;;;6.23;5.00;;;16.00;72.30;;;;;;10411044;28;20217;-57
2021/10/11 02:42:32;;;;;;;6.20;4.87;;;16.00;72.30;;;;;;10417877;28;20205;-55
2021/10/11 02:47:54;;;;;;;6.60;4.80;;;16.00;72.40;;;;;;10418707;28;20224;-54
2021/10/11 02:53:17;;;;;;;6.50;4.80;;;16.00;72.40;;;;;;10417089;28;20225;-57
2021/10/11 02:58:40;;;;;;;5.63;4.70;;;16.00;72.50;;;;;;10417988;28;20202;-58
2021/10/11 03:04:02;;;;;;;5.30;4.73;;;16.00;72.60;;;;;;10416449;28;20225;-53
2021/10/11 03:09:24;;;;;;;5.03;4.47;;;16.00;72.60;;;;;;10458219;28;20592;-53
2021/10/11 03:14:47;;;;;;;5.97;4.87;;;16.00;72.60;;;;;;10458725;28;20591;-56
2021/10/11 03:20:10;;;;;;;6.37;5.43;;;16.00;72.80;;;;;;10433756;28;20669;-54
2021/10/11 03:25:33;;;;;;;7.43;5.27;;;16.00;72.80;;;;;;10416231;28;20218;-56
2021/10/11 03:30:56;;;;;;;6.90;5.80;;;16.00;72.90;;;;;;10417796;28;20217;-58
2021/10/11 03:36:18;;;;;;;6.23;5.43;;;16.00;72.90;;;;;;10416198;28;20221;-55
2021/10/11 03:41:40;;;;;;;9.00;6.17;;;16.00;73.00;;;;;;10418276;28;20201;-55
2021/10/11 03:47:04;;;;;;;6.93;5.47;;;16.00;73.10;;;;;;10419007;28;20241;-55
2021/10/11 03:52:26;;;;;;;7.93;6.17;;;16.00;73.10;;;;;;10414632;28;20197;-58
2021/10/11 03:57:48;;;;;;;7.77;6.17;;;16.00;73.10;;;;;;10429288;28;20252;-53
2021/10/11 04:03:11;;;;;;;7.07;5.93;;;16.00;73.20;;;;;;10456484;28;20228;-53
2021/10/11 04:08:36;;;;;;;8.07;6.37;;;16.00;73.30;;;;;;10411854;28;20689;-55
2021/10/11 04:13:58;;;;;;;9.43;6.50;;;16.00;73.30;;;;;;10409111;28;20651;-57
2021/10/11 04:19:21;;;;;;;8.57;6.63;;;16.00;73.30;;;;;;10402842;28;20741;-58
2021/10/11 04:24:43;;;;;;;8.77;6.57;;;16.00;73.40;;;;;;10409289;28;20642;-57
2021/10/11 04:30:06;;;;;;;8.60;6.97;;;16.00;73.40;;;;;;10408628;28;20574;-58
2021/10/11 04:35:30;;;;;;;9.37;6.57;;;16.00;73.50;;;;;;10416356;28;20576;-60
2021/10/11 04:40:52;;;;;;;8.87;6.53;;;16.00;73.50;;;;;;10441253;28;20186;-57
2021/10/11 04:46:14;;;;;;;7.83;6.37;;;16.00;73.60;;;;;;10413358;28;20205;-54
2021/10/11 04:51:38;;;;;;;9.23;6.43;;;16.00;73.60;;;;;;10410777;28;20198;-54
2021/10/11 04:57:00;;;;;;;7.70;6.57;;;16.00;73.70;;;;;;10413221;28;20222;-56
2021/10/11 05:02:22;;;;;;;10.40;7.33;;;16.00;73.70;;;;;;10417343;28;20197;-54
2021/10/11 05:07:45;;;;;;;8.40;6.47;;;16.00;73.80;;;;;;10428713;28;20221;-53
2021/10/11 05:13:07;;;;;;;9.13;6.80;;;16.00;73.80;;;;;;10428070;28;20200;-56
2021/10/11 05:18:29;;;;;;;8.73;6.93;;;16.00;73.80;;;;;;10426636;28;20186;-58
2021/10/11 05:23:53;;;;;;;9.20;7.20;;;16.00;73.90;;;;;;10427407;28;20719;-58
2021/10/11 05:29:15;;;;;;;9.07;7.03;;;16.00;73.90;;;;;;10441057;28;20224;-57
2021/10/11 05:34:37;;;;;;;11.13;7.07;;;16.00;74.00;;;;;;10453690;28;20227;-58
2021/10/11 05:40:00;;;;;;;10.93;7.03;;;16.00;74.00;;;;;;10453288;28;20200;-56
2021/10/11 05:45:22;;;;;;;10.17;6.93;;;16.00;74.00;;;;;;10453239;28;20213;-58
2021/10/11 05:50:44;;;;;;;10.30;6.67;;;16.00;74.10;;;;;;10404265;28;20593;-57
2021/10/11 05:56:08;;;;;;;6.97;6.27;;;16.00;74.10;;;;;;10454236;22;20634;-55
2021/10/11 06:01:30;;;;;;;8.87;6.93;;;16.00;74.10;;;;;;10466150;28;20203;-54
2021/10/11 06:06:52;;;;;;;7.33;6.03;;;16.00;74.20;;;;;;10452859;28;20718;-51
2021/10/11 06:12:15;;;;;;;9.00;5.60;;;16.00;74.20;;;;;;10447833;28;20845;-52
2021/10/11 06:17:37;;;;;;;7.53;6.27;;;16.00;74.20;;;;;;10438543;28;20226;-52
2021/10/11 06:22:59;;;;;;;6.83;5.87;;;16.00;74.20;;;;;;10439011;28;20196;-53
2021/10/11 06:28:23;;;;;;;6.00;5.03;;;16.00;74.30;;;;;;10450379;28;20236;-53
2021/10/11 06:33:46;;;;;;;6.17;4.77;;;16.00;74.30;;;;;;10424716;28;20585;-52
2021/10/11 06:39:08;;;;;;;6.57;5.10;;;16.00;74.40;;;;;;10447760;28;20197;-56
2021/10/11 06:44:32;;;;;;;6.90;5.50;;;16.00;74.50;;;;;;10461729;28;20217;-57
2021/10/11 06:49:54;;;;;;;6.27;4.90;;;16.00;74.60;;;;;;10444863;28;20232;-52
2021/10/11 06:55:16;;;;;;;5.67;4.80;;;16.00;74.60;;;;;;10491050;28;20220;-54
2021/10/11 07:00:39;;;;;;;8.67;4.40;;;16.00;74.70;;;;;;10454083;28;20200;-52
2021/10/11 07:06:06;;;;;;;5.33;4.20;;;16.00;74.70;;;;;;10448724;28;20224;-56
2021/10/11 07:11:28;;;;;;;6.40;4.70;;;16.00;74.80;;;;;;10450175;28;20710;-56
2021/10/11 07:16:51;;;;;;;4.50;3.83;;;16.00;74.90;;;;;;10449375;28;20231;-53
2021/10/11 07:22:14;;;;;;;5.47;4.00;;;16.10;75.00;;;;;;10416030;28;20198;-56
2021/10/11 07:27:36;;;;;;;5.70;4.23;;;16.00;75.00;;;;;;10447425;28;20225;-58
2021/10/11 07:33:01;;;;;;;5.57;4.30;;;16.00;75.00;;;;;;10455790;28;20200;-55
2021/10/11 07:38:23;;;;;;;6.17;4.33;;;16.10;75.10;;;;;;10456720;28;20244;-57
2021/10/11 07:43:45;;;;;;;4.23;3.53;;;16.00;75.10;;;;;;10445541;28;20194;-53
2021/10/11 07:49:09;;;;;;;4.40;3.70;;;16.10;75.20;;;;;;10454173;28;20707;-57
2021/10/11 07:54:31;;;;;;;6.07;4.13;;;16.10;75.20;;;;;;10473244;28;20225;-56
2021/10/11 07:59:53;;;;;;;7.13;4.00;;;16.10;75.30;;;;;;10485522;28;20191;-55
2021/10/11 08:05:17;;;;;;;4.83;3.30;;;16.10;75.30;;;;;;10494906;28;20220;-56
2021/10/11 08:10:39;;;;;;;3.90;3.40;;;16.10;75.40;;;;;;10491680;28;20618;-57
2021/10/11 08:16:03;;;;;;;4.00;3.40;;;16.10;75.40;;;;;;10495572;28;20291;-55
2021/10/11 08:21:27;;;;;;;5.03;3.23;;;16.10;75.50;;;;;;10461283;28;20688;-55
2021/10/11 08:26:49;;;;;;;4.60;3.40;;;16.00;75.50;;;;;;10421072;28;20218;-52
2021/10/11 08:32:11;;;;;;;5.27;3.07;;;16.10;75.60;;;;;;10454692;28;20692;-54
2021/10/11 08:37:34;;;;;;;5.87;3.40;;;16.10;75.70;;;;;;10455056;28;20623;-54
2021/10/11 08:42:57;;;;;;;4.00;2.83;;;16.10;75.70;;;;;;10454736;28;20197;-53
2021/10/11 08:48:19;;;;;;;5.10;3.40;;;16.10;75.70;;;;;;10451558;28;20224;-54
2021/10/11 08:53:43;;;;;;;5.27;3.07;;;16.10;75.70;;;;;;10456867;28;20692;-51
2021/10/11 08:59:05;;;;;;;3.80;2.80;;;16.10;75.80;;;;;;10454367;28;20208;-56
2021/10/11 09:04:27;;;;;;;3.87;3.00;;;16.10;75.90;;;;;;10454443;28;20228;-53
2021/10/11 09:09:53;;;;;;;3.33;2.67;;;16.00;75.80;;;;;;10411858;28;20711;-57
2021/10/11 09:15:15;;;;;;;4.87;2.87;;;16.10;75.90;;;;;;10412508;28;20278;-54
2021/10/11 09:20:39;;;;;;;4.17;2.70;;;16.10;75.90;;;;;;10427175;28;20205;-55
2021/10/11 09:26:15;;;;;;;3.73;2.57;;;16.10;76.00;;;;;;10449292;28;20217;-59
2021/10/11 09:31:39;;;;;;;3.50;2.50;;;16.10;76.00;;;;;;10450740;28;20209;-57
2021/10/11 09:37:03;;;;;;;4.77;2.77;;;16.00;76.00;;;;;;10451711;28;20220;-57
2021/10/11 09:42:30;;;;;;;3.67;2.30;;;16.00;76.10;;;;;;10452164;28;20569;-57
2021/10/11 09:47:52;;;;;;;4.60;2.43;;;16.00;76.60;;;;;;10448555;28;20225;-57
2021/10/11 09:53:16;;;;;;;3.60;2.33;;;16.00;76.00;;;;;;10461726;28;20198;-54
2021/10/11 09:58:40;;;;;;;3.13;2.30;;;16.00;76.20;;;;;;10461530;28;20479;-50
2021/10/11 10:04:03;;;;;;;3.90;2.80;;;16.00;76.00;;;;;;10410784;28;20201;-58
2021/10/11 10:09:28;;;;;;;3.80;2.40;;;16.00;75.90;;;;;;10421044;28;20212;-55
2021/10/11 10:15:00;;;;;;;3.80;2.20;;;16.00;75.90;;;;;;10451829;28;20281;-56
2021/10/11 10:20:22;;;;;;;2.87;2.37;;;16.10;75.90;;;;;;10445570;28;20692;-58
2021/10/11 10:25:46;;;;;;;3.90;2.50;;;16.10;75.90;;;;;;10422939;28;20223;-56
2021/10/11 10:31:10;;;;;;;2.83;2.20;;;16.10;76.00;;;;;;10450388;28;20216;-55
2021/10/11 10:36:32;;;;;;;3.40;2.13;;;16.10;76.00;;;;;;10418057;28;20601;-57
2021/10/11 10:41:56;;;;;;;2.60;2.40;;;16.10;76.00;;;;;;10447039;28;20676;-59
2021/10/11 10:47:31;;;;;;;2.63;2.20;;;16.10;76.00;;;;;;10435844;28;20224;-57
2021/10/11 10:52:54;;;;;;;2.50;2.10;;;16.10;75.90;;;;;;10433508;28;20203;-61
2021/10/11 10:58:17;;;;;;;5.07;2.50;;;16.10;76.00;;;;;;10450778;28;20217;-57
2021/10/11 11:03:40;;;;;;;3.40;2.17;;;16.10;75.90;;;;;;10458732;28;20203;-54
2021/10/11 11:09:02;;;;;;;4.27;2.30;;;16.10;75.90;;;;;;10457873;28;20208;-56
2021/10/11 11:14:24;;;;;;;3.95;2.30;;;16.10;75.90;;;;;;10450717;28;20478;-55
2021/10/11 11:19:48;;;;;;;3.33;1.70;;;16.20;75.70;;;;;;10441327;28;20193;-57
2021/10/11 11:25:11;;;;;;;2.40;2.10;;;16.10;75.60;;;;;;10444050;28;20214;-51
2021/10/11 11:30:34;;;;;;;4.33;2.03;;;16.10;75.70;;;;;;10448779;28;20588;-51
2021/10/11 11:35:59;;;;;;;3.27;2.40;;;16.10;75.80;;;;;;10453027;28;20221;-54
2021/10/11 11:41:21;;;;;;;4.67;2.33;;;16.10;75.90;;;;;;10446112;28;20588;-50
2021/10/11 11:46:43;;;;;;;4.53;1.80;;;16.10;75.90;;;;;;10444794;28;20221;-48
2021/10/11 11:52:10;;;;;;;3.23;1.87;;;16.10;76.00;;;;;;10490131;28;20711;-52
2021/10/11 11:57:42;;;;;;;3.30;2.10;;;16.10;76.00;;;;;;10479895;22;20235;-58
2021/10/11 12:03:04;;;;;;;2.83;1.80;;;16.10;76.10;;;;;;10429175;28;20292;-57
2021/10/11 12:08:28;;;;;;;6.03;1.87;;;16.10;76.10;;;;;;10439555;28;20216;-54
2021/10/11 12:13:50;;;;;;;3.70;1.70;;;16.10;76.10;;;;;;10431709;28;20212;-59
2021/10/11 12:19:12;;;;;;;4.87;2.00;;;16.10;76.10;;;;;;10423222;28;20225;-57
2021/10/11 12:24:35;;;;;;;3.17;1.67;;;16.10;76.00;;;;;;10384241;28;20195;-54
2021/10/11 12:30:01;;;;;;;3.97;1.67;;;16.10;76.10;;;;;;10406825;28;20711;-57
2021/10/11 12:35:23;;;;;;;4.93;1.73;;;16.10;76.10;;;;;;10396350;28;20218;-59
2021/10/11 12:40:47;;;;;;;2.53;1.30;;;16.10;76.20;;;;;;10393549;28;20202;-59
2021/10/11 12:46:10;;;;;;;3.00;1.33;;;16.10;76.20;;;;;;10408950;28;20217;-55
2021/10/11 12:51:34;;;;;;;2.83;1.30;;;16.10;76.20;;;;;;10395620;28;20225;-55
2021/10/11 12:57:00;;;;;;;2.43;1.20;;;16.10;76.20;;;;;;10407508;28;20241;-56
2021/10/11 13:02:22;;;;;;;3.57;1.50;;;16.10;76.30;;;;;;10415236;28;20201;-58
2021/10/11 13:07:45;;;;;;;2.60;1.57;;;16.10;76.30;;;;;;10406481;28;20838;-56
2021/10/11 13:13:08;;;;;;;2.57;1.53;;;16.10;76.30;;;;;;10410266;28;20718;-54
2021/10/11 13:18:30;;;;;;;2.63;1.40;;;16.10;76.40;;;;;;10406803;28;20685;-56
2021/10/11 13:23:53;;;;;;;3.03;1.57;;;16.10;76.40;;;;;;10389996;28;20197;-58
2021/10/11 13:29:53;;;;;;;2.27;1.23;;;16.10;76.50;;;;;;10401623;28;20221;-61
2021/10/11 14:26:33;;;;;;;2.10;1.23;;;16.10;76.60;;;;;;10435839;28;20376;-59
2021/10/11 14:32:00;;;;;;;4.90;1.30;;;16.10;76.60;;;;;;10449349;28;20217;-59
2021/10/11 16:02:29;;;;;;;1.87;1.03;;;16.30;76.40;;;;;;10395609;28;20193;-62
2021/10/11 16:07:51;;;;;;;3.03;1.20;;;16.30;76.20;;;;;;10427473;28;20218;-60
2021/10/11 16:13:13;;;;;;;1.13;0.90;;;16.40;76.10;;;;;;10415493;28;20727;-59
2021/10/11 16:18:37;;;;;;;4.67;1.00;;;16.50;75.90;;;;;;10375338;28;20697;-59
2021/10/11 16:24:01;;;;;;;2.60;0.80;;;16.50;75.80;;;;;;10373743;28;20194;-61
2021/10/11 16:29:23;;;;;;;4.77;1.13;;;16.50;75.70;;;;;;10424704;28;20692;-60
2021/10/11 16:34:47;;;;;;;1.80;1.20;;;16.60;75.70;;;;;;10413800;28;20224;-60
2021/10/11 16:40:10;;;;;;;3.27;1.20;;;16.60;75.60;;;;;;10420198;28;20193;-60
2021/10/11 16:45:32;;;;;;;1.30;0.90;;;16.60;75.50;;;;;;10382263;28;20230;-60
2021/10/11 16:50:56;;;;;;;2.13;1.10;;;16.60;75.40;;;;;;10370948;28;20229;-60
2021/10/11 16:56:18;;;;;;;1.33;0.90;;;16.60;75.40;;;;;;10401431;28;20718;-60
2021/10/11 17:01:40;;;;;;;1.43;0.90;;;16.70;75.30;;;;;;10407720;28;20198;-60
2021/10/11 17:07:03;;;;;;;1.77;0.77;;;16.70;75.10;;;;;;10369640;28;20610;-59
2021/10/11 17:12:27;;;;;;;2.50;0.73;;;16.80;75.10;;;;;;10372101;28;20237;-60
2021/10/11 17:17:49;;;;;;;1.67;1.07;;;16.80;75.10;;;;;;10403485;28;20222;-58
2021/10/11 17:23:13;;;;;;;1.80;1.20;;;16.80;75.20;;;;;;10416471;28;20206;-59
2021/10/11 17:28:36;;;;;;;3.93;1.10;;;16.80;75.20;;;;;;10381154;28;20219;-58
2021/10/11 17:33:58;;;;;;;1.53;0.93;;;16.80;75.10;;;;;;10371704;28;20202;-59
2021/10/11 17:39:22;;;;;;;1.00;0.80;;;16.80;74.90;;;;;;10371113;28;20210;-60
2021/10/11 17:44:44;;;;;;;2.00;0.60;;;16.90;75.00;;;;;;10369981;28;20637;-61
2021/10/11 17:50:07;;;;;;;2.00;0.97;;;16.90;74.90;;;;;;10381240;28;20218;-61
2021/10/11 17:55:31;;;;;;;2.67;0.90;;;16.90;75.00;;;;;;10410226;22;20697;-56
2021/10/11 18:00:53;;;;;;;1.50;0.87;;;16.90;75.10;;;;;;10439992;28;20573;-54
2021/10/11 18:06:15;;;;;;;1.03;0.70;;;16.90;75.10;;;;;;10428021;28;20244;-54
2021/10/11 18:11:38;;;;;;;1.83;1.10;;;17.00;75.10;;;;;;10408595;28;20218;-54
2021/10/11 18:17:00;;;;;;;1.93;0.80;;;16.90;75.00;;;;;;10397939;28;20217;-56
2021/10/11 18:22:23;;;;;;;1.33;0.83;;;17.00;75.00;;;;;;10404948;28;20193;-52
2021/10/11 18:27:46;;;;;;;1.50;0.93;;;17.00;75.00;;;;;;10383347;28;20225;-53
2021/10/11 18:33:08;;;;;;;1.70;0.80;;;17.00;75.00;;;;;;10363410;28;20225;-52
2021/10/11 18:38:30;;;;;;;1.50;0.80;;;17.00;74.90;;;;;;10369407;28;20210;-55
2021/10/11 18:43:54;;;;;;;1.70;1.00;;;17.00;74.80;;;;;;10377790;28;20202;-59
2021/10/11 18:49:16;;;;;;;1.10;0.87;;;17.00;74.70;;;;;;10413644;28;20221;-55
2021/10/11 18:54:39;;;;;;;1.57;0.77;;;17.00;74.70;;;;;;10406302;28;20665;-52
2021/10/11 19:00:04;;;;;;;1.67;0.87;;;17.00;74.70;;;;;;10435554;28;20197;-54
2021/10/11 19:05:26;;;;;;;1.80;0.97;;;17.10;74.70;;;;;;10412927;28;20716;-56
2021/10/11 19:10:50;;;;;;;2.03;0.93;;;17.10;74.60;;;;;;10365444;28;20226;-54
2021/10/11 19:16:13;;;;;;;2.97;1.10;;;17.10;74.60;;;;;;10368063;28;20218;-55
2021/10/11 19:21:36;;;;;;;2.63;1.10;;;17.10;74.60;;;;;;10441496;28;20197;-51
2021/10/11 19:26:58;;;;;;;1.63;0.80;;;17.10;74.50;;;;;;10442339;28;20223;-49
2021/10/11 19:32:22;;;;;;;1.47;0.80;;;17.10;74.50;;;;;;10393965;28;20210;-52
2021/10/11 19:37:44;;;;;;;1.50;0.90;;;17.10;74.50;;;;;;10379399;28;20214;-53
2021/10/11 19:43:07;;;;;;;3.03;0.97;;;17.10;74.40;;;;;;10395428;28;20330;-55
2021/10/11 19:48:31;;;;;;;1.73;0.97;;;17.20;74.40;;;;;;10421347;28;20224;-54
2021/10/11 19:53:53;;;;;;;2.23;1.30;;;17.20;74.50;;;;;;10423293;28;20233;-52
2021/10/11 19:59:15;;;;;;;1.90;0.90;;;17.20;74.40;;;;;;10414988;28;20936;-54
2021/10/11 20:04:39;;;;;;;1.53;0.97;;;17.20;74.40;;;;;;10395006;28;20661;-55
2021/10/11 20:10:01;;;;;;;2.40;1.00;;;17.20;74.40;;;;;;10393044;28;20207;-49
2021/10/11 20:15:23;;;;;;;1.70;1.00;;;17.20;74.30;;;;;;10395597;28;20213;-53
2021/10/11 20:20:47;;;;;;;1.57;0.83;;;17.20;74.20;;;;;;10393945;28;20660;-53
2021/10/11 20:26:10;;;;;;;2.63;1.20;;;17.20;74.20;;;;;;10396179;28;20841;-58
2021/10/11 20:31:32;;;;;;;1.57;0.90;;;17.20;74.20;;;;;;10395221;28;20616;-55
2021/10/11 20:36:56;;;;;;;2.23;1.20;;;17.30;74.20;;;;;;10391766;28;20214;-49
2021/10/11 20:42:19;;;;;;;2.07;1.07;;;17.30;74.10;;;;;;10393584;28;20185;-52
2021/10/11 20:47:41;;;;;;;3.07;0.70;;;17.30;74.10;;;;;;10394039;28;20596;-51
2021/10/11 20:53:04;;;;;;;2.23;1.10;;;17.30;74.20;;;;;;10415764;28;20229;-52
2021/10/11 20:58:26;;;;;;;2.13;0.90;;;17.20;74.20;;;;;;10414302;28;20221;-52
2021/10/11 21:03:49;;;;;;;1.27;0.90;;;17.20;74.20;;;;;;10382690;28;20578;-58
2021/10/11 21:09:12;;;;;;;1.53;0.90;;;17.20;74.30;;;;;;10371443;28;20221;-56
2021/10/11 21:14:34;;;;;;;2.80;1.20;;;17.10;74.30;;;;;;10387395;28;20218;-52
2021/10/11 21:19:56;;;;;;;2.20;0.93;;;17.10;74.40;;;;;;10390738;28;20207;-56
2021/10/11 21:25:20;;;;;;;2.10;1.13;;;17.10;74.40;;;;;;10411852;28;20225;-51
2021/10/11 21:30:42;;;;;;;3.07;1.20;;;17.10;74.40;;;;;;10420451;28;20580;-57
2021/10/11 21:36:05;;;;;;;2.57;1.10;;;17.10;74.40;;;;;;10408441;28;20248;-50
2021/10/11 21:41:29;;;;;;;1.70;0.83;;;17.10;74.90;;;;;;10412237;28;20593;-51
2021/10/11 21:46:51;;;;;;;3.77;1.20;;;17.00;74.30;;;;;;10414051;28;20240;-51
2021/10/11 21:52:13;;;;;;;2.10;1.07;;;17.10;74.40;;;;;;10374110;28;20801;-55
2021/10/11 21:57:38;;;;;;;1.83;0.90;;;17.10;74.30;;;;;;10370639;28;20238;-54
2021/10/11 22:03:01;;;;;;;2.60;1.13;;;17.10;74.30;;;;;;10370033;28;20784;-51
2021/10/11 22:08:24;;;;;;;1.87;0.90;;;17.10;74.30;;;;;;10370134;28;20209;-49
2021/10/11 22:13:47;;;;;;;2.43;0.97;;;17.00;74.60;;;;;;10396446;28;20218;-52
2021/10/11 22:19:10;;;;;;;1.17;0.73;;;17.10;74.30;;;;;;10411268;28;20659;-56
2021/10/11 22:24:32;;;;;;;1.83;1.03;;;17.10;74.20;;;;;;10411623;28;20200;-53
2021/10/11 22:29:56;;;;;;;2.97;1.23;;;17.10;74.20;;;;;;10430155;28;20205;-52
2021/10/11 22:35:18;;;;;;;2.50;0.90;;;17.10;74.30;;;;;;10451983;28;20217;-50
